PWSweather.com
Personal Weather Stations
Station Observations

DeskleSI

Lat: 46.0525, Lon: 13.6103

Elevation: 300

Station Type: Oregon Scientific WMR200

http://vreme-deskle.slohosting.com/

High Low Average
Temperature 54.9°F12.7°C 45.5°F7.5°C 47.2°F8.4°C
Dew Point 52.3°F11.3°C 42.6°F5.9°C 45.0°F7.2°C
Winds 10.7 mph 17.2 kmh Calm Calm 1.0 mph ESE1.6 kmh ESE
Wind Gusts 19.7 mph31.7 kmh -- 2.0 mph3.2 kmh
Humidity 95% 87% 92%
Pressure 29.95 in1014.2 mb 29.53 in1000.0 mb -
Precipitation 2.11 in53.6 mm - -
Hour Temp Dew Point Humidity Winds Wind Gusts Pressure Precip Precip Rate Daily Precip Total
12:00 AM 46.2°F7.9°C 42.6°F5.9°C 87% Calm Calm -- 29.95 in1014.2 mb 0.00 in0.0 mm 0.00 in0.0 mm 0.00 in0.0 mm
12:05 AM 46.2°F7.9°C 42.6°F5.9°C 87% Calm Calm -- 29.95 in1014.2 mb 0.00 in0.0 mm 0.00 in0.0 mm 0.00 in0.0 mm
12:10 AM 46.2°F7.9°C 42.6°F5.9°C 87% Calm Calm -- 29.95 in1014.2 mb 0.00 in0.0 mm 0.00 in0.0 mm 0.00 in0.0 mm
12:15 AM 46.2°F7.9°C 42.9°F6.1°C 88% Calm Calm -- 29.95 in1014.2 mb 0.00 in0.0 mm 0.00 in0.0 mm 0.00 in0.0 mm
12:20 AM 46.2°F7.9°C 43.2°F6.2°C 89% Calm Calm 1.3 mph2.1 kmh 29.95 in1014.2 mb 0.00 in0.0 mm 0.00 in0.0 mm 0.00 in0.0 mm
12:25 AM 46.2°F7.9°C 43.2°F6.2°C 89% Calm Calm 1.3 mph2.1 kmh 29.95 in1014.2 mb 0.00 in0.0 mm 0.00 in0.0 mm 0.00 in0.0 mm
12:30 AM 46.2°F7.9°C 42.9°F6.1°C 88% Calm Calm 1.6 mph2.6 kmh 29.95 in1014.2 mb 0.00 in0.0 mm 0.00 in0.0 mm 0.00 in0.0 mm
12:35 AM 46.2°F7.9°C 42.9°F6.1°C 88% Calm Calm 1.6 mph2.6 kmh 29.95 in1014.2 mb 0.00 in0.0 mm 0.00 in0.0 mm 0.00 in0.0 mm
12:40 AM 46.2°F7.9°C 42.9°F6.1°C 88% Calm Calm -- 29.95 in1014.2 mb 0.00 in0.0 mm 0.00 in0.0 mm 0.00 in0.0 mm
12:45 AM 46.2°F7.9°C 43.4°F6.3°C 90% 0.9 mph E1.4 kmh E 2.0 mph3.2 kmh 29.95 in1014.2 mb 0.00 in0.0 mm 0.00 in0.0 mm 0.00 in0.0 mm
12:50 AM 46.2°F7.9°C 43.4°F6.3°C 90% 1.3 mph ESE2.1 kmh ESE 2.7 mph4.3 kmh 29.95 in1014.2 mb 0.00 in0.0 mm 0.00 in0.0 mm 0.00 in0.0 mm
12:55 AM 46.2°F7.9°C 43.2°F6.2°C 89% 1.3 mph SE2.1 kmh SE 3.1 mph5.0 kmh 29.95 in1014.2 mb 0.00 in0.0 mm 0.00 in0.0 mm 0.00 in0.0 mm
01:00 AM 46.2°F7.9°C 42.9°F6.1°C 88% Calm Calm 3.1 mph5.0 kmh 29.95 in1014.2 mb 0.00 in0.0 mm 0.00 in0.0 mm 0.00 in0.0 mm
01:05 AM 46.2°F7.9°C 42.9°F6.1°C 88% Calm Calm 2.0 mph3.2 kmh 29.95 in1014.2 mb 0.00 in0.0 mm 0.00 in0.0 mm 0.00 in0.0 mm
01:10 AM 46.2°F7.9°C 42.9°F6.1°C 88% Calm Calm -- 29.95 in1014.2 mb 0.00 in0.0 mm 0.00 in0.0 mm 0.00 in0.0 mm
01:15 AM 46.2°F7.9°C 42.9°F6.1°C 88% Calm Calm -- 29.95 in1014.2 mb 0.00 in0.0 mm 0.00 in0.0 mm 0.00 in0.0 mm
01:20 AM 46.2°F7.9°C 43.2°F6.2°C 89% Calm Calm 2.2 mph3.5 kmh 29.95 in1014.2 mb 0.00 in0.0 mm 0.00 in0.0 mm 0.00 in0.0 mm
01:25 AM 46.2°F7.9°C 43.2°F6.2°C 89% Calm Calm 2.2 mph3.5 kmh 29.95 in1014.2 mb 0.00 in0.0 mm 0.00 in0.0 mm 0.00 in0.0 mm
01:30 AM 46.2°F7.9°C 43.2°F6.2°C 89% Calm Calm 1.1 mph1.8 kmh 29.95 in1014.2 mb 0.00 in0.0 mm 0.00 in0.0 mm 0.00 in0.0 mm
01:35 AM 46.2°F7.9°C 43.2°F6.2°C 89% Calm Calm 0.9 mph1.4 kmh 29.95 in1014.2 mb 0.00 in0.0 mm 0.00 in0.0 mm 0.00 in0.0 mm
01:40 AM 46.2°F7.9°C 43.2°F6.2°C 89% Calm Calm 1.6 mph2.6 kmh 29.95 in1014.2 mb 0.00 in0.0 mm 0.00 in0.0 mm 0.00 in0.0 mm
01:45 AM 46.2°F7.9°C 42.9°F6.1°C 88% Calm Calm 1.6 mph2.6 kmh 29.95 in1014.2 mb 0.00 in0.0 mm 0.00 in0.0 mm 0.00 in0.0 mm
01:50 AM 46.0°F7.8°C 42.7°F5.9°C 88% Calm Calm -- 29.95 in1014.2 mb 0.00 in0.0 mm 0.00 in0.0 mm 0.00 in0.0 mm
01:55 AM 46.0°F7.8°C 42.7°F5.9°C 88% Calm Calm -- 29.95 in1014.2 mb 0.00 in0.0 mm 0.00 in0.0 mm 0.00 in0.0 mm
02:00 AM 46.2°F7.9°C 43.2°F6.2°C 89% 1.3 mph E2.1 kmh E 2.5 mph4.0 kmh 29.95 in1014.2 mb 0.00 in0.0 mm 0.00 in0.0 mm 0.00 in0.0 mm
02:05 AM 46.2°F7.9°C 43.4°F6.3°C 90% 2.0 mph E3.2 kmh E 2.9 mph4.7 kmh 29.95 in1014.2 mb 0.00 in0.0 mm 0.00 in0.0 mm 0.00 in0.0 mm
02:10 AM 46.0°F7.8°C 43.8°F6.6°C 92% 3.1 mph ESE5.0 kmh ESE 3.8 mph6.1 kmh 29.95 in1014.2 mb 0.00 in0.0 mm 0.00 in0.0 mm 0.00 in0.0 mm
02:15 AM 46.0°F7.8°C 43.8°F6.6°C 92% 2.2 mph SE3.5 kmh SE 3.8 mph6.1 kmh 29.95 in1014.2 mb 0.00 in0.0 mm 0.00 in0.0 mm 0.00 in0.0 mm
02:20 AM 46.0°F7.8°C 43.6°F6.4°C 91% 1.3 mph SE2.1 kmh SE 3.6 mph5.8 kmh 29.95 in1014.2 mb 0.00 in0.0 mm 0.00 in0.0 mm 0.00 in0.0 mm
02:25 AM 46.0°F7.8°C 43.8°F6.6°C 92% 1.3 mph ESE2.1 kmh ESE 2.5 mph4.0 kmh 29.95 in1014.2 mb 0.00 in0.0 mm 0.00 in0.0 mm 0.00 in0.0 mm
02:30 AM 46.0°F7.8°C 43.6°F6.4°C 91% Calm Calm 2.2 mph3.5 kmh 29.95 in1014.2 mb 0.00 in0.0 mm 0.00 in0.0 mm 0.00 in0.0 mm
02:35 AM 46.2°F7.9°C 43.7°F6.5°C 91% Calm Calm 2.2 mph3.5 kmh 29.95 in1014.2 mb 0.00 in0.0 mm 0.00 in0.0 mm 0.00 in0.0 mm
02:40 AM 46.2°F7.9°C 43.7°F6.5°C 91% Calm Calm -- 29.92 in1013.2 mb 0.00 in0.0 mm 0.00 in0.0 mm 0.00 in0.0 mm
02:45 AM 46.0°F7.8°C 43.6°F6.4°C 91% Calm Calm -- 29.92 in1013.2 mb 0.00 in0.0 mm 0.00 in0.0 mm 0.00 in0.0 mm
02:50 AM 46.0°F7.8°C 43.3°F6.3°C 90% Calm Calm -- 29.92 in1013.2 mb 0.00 in0.0 mm 0.00 in0.0 mm 0.00 in0.0 mm
02:55 AM 45.9°F7.7°C 43.1°F6.2°C 90% Calm Calm -- 29.92 in1013.2 mb 0.00 in0.0 mm 0.00 in0.0 mm 0.00 in0.0 mm
03:00 AM 46.0°F7.8°C 43.3°F6.3°C 90% Calm Calm -- 29.92 in1013.2 mb 0.00 in0.0 mm 0.00 in0.0 mm 0.00 in0.0 mm
03:05 AM 45.9°F7.7°C 43.1°F6.2°C 90% Calm Calm -- 29.92 in1013.2 mb 0.00 in0.0 mm 0.00 in0.0 mm 0.00 in0.0 mm
03:10 AM 45.9°F7.7°C 43.1°F6.2°C 90% Calm Calm -- 29.89 in1012.2 mb 0.00 in0.0 mm 0.00 in0.0 mm 0.00 in0.0 mm
03:15 AM 45.9°F7.7°C 43.1°F6.2°C 90% 1.1 mph ESE1.8 kmh ESE 2.0 mph3.2 kmh 29.89 in1012.2 mb 0.00 in0.0 mm 0.00 in0.0 mm 0.00 in0.0 mm
03:20 AM 45.9°F7.7°C 43.1°F6.2°C 90% Calm Calm 2.0 mph3.2 kmh 29.89 in1012.2 mb 0.00 in0.0 mm 0.00 in0.0 mm 0.00 in0.0 mm
03:25 AM 45.9°F7.7°C 43.1°F6.2°C 90% Calm Calm 0.9 mph1.4 kmh 29.89 in1012.2 mb 0.00 in0.0 mm 0.00 in0.0 mm 0.00 in0.0 mm
03:30 AM 45.9°F7.7°C 43.1°F6.2°C 90% Calm Calm -- 29.89 in1012.2 mb 0.00 in0.0 mm 0.00 in0.0 mm 0.00 in0.0 mm
03:35 AM 45.9°F7.7°C 43.1°F6.2°C 90% Calm Calm -- 29.89 in1012.2 mb 0.00 in0.0 mm 0.00 in0.0 mm 0.00 in0.0 mm
03:40 AM 45.9°F7.7°C 43.1°F6.2°C 90% Calm Calm -- 29.89 in1012.2 mb 0.00 in0.0 mm 0.00 in0.0 mm 0.00 in0.0 mm
03:45 AM 45.9°F7.7°C 43.1°F6.2°C 90% Calm Calm -- 29.89 in1012.2 mb 0.00 in0.0 mm 0.00 in0.0 mm 0.00 in0.0 mm
03:50 AM 45.9°F7.7°C 43.1°F6.2°C 90% Calm Calm 2.2 mph3.5 kmh 29.89 in1012.2 mb 0.00 in0.0 mm 0.00 in0.0 mm 0.00 in0.0 mm
03:55 AM 45.9°F7.7°C 43.1°F6.2°C 90% Calm Calm 2.2 mph3.5 kmh 29.89 in1012.2 mb 0.00 in0.0 mm 0.00 in0.0 mm 0.00 in0.0 mm
04:00 AM 45.9°F7.7°C 43.1°F6.2°C 90% Calm Calm 1.3 mph2.1 kmh 29.89 in1012.2 mb 0.00 in0.0 mm 0.00 in0.0 mm 0.00 in0.0 mm
04:05 AM 45.9°F7.7°C 43.1°F6.2°C 90% Calm Calm 1.3 mph2.1 kmh 29.89 in1012.2 mb 0.00 in0.0 mm 0.00 in0.0 mm 0.00 in0.0 mm
04:10 AM 45.9°F7.7°C 43.1°F6.2°C 90% Calm Calm -- 29.89 in1012.2 mb 0.00 in0.0 mm 0.00 in0.0 mm 0.00 in0.0 mm
04:15 AM 45.7°F7.6°C 42.9°F6.1°C 90% Calm Calm -- 29.89 in1012.2 mb 0.00 in0.0 mm 0.00 in0.0 mm 0.00 in0.0 mm
04:20 AM 45.7°F7.6°C 42.9°F6.1°C 90% Calm Calm -- 29.89 in1012.2 mb 0.00 in0.0 mm 0.00 in0.0 mm 0.00 in0.0 mm
04:25 AM 45.7°F7.6°C 42.9°F6.1°C 90% 0.9 mph ESE1.4 kmh ESE 1.1 mph1.8 kmh 29.89 in1012.2 mb 0.00 in0.0 mm 0.00 in0.0 mm 0.00 in0.0 mm
04:30 AM 45.7°F7.6°C 43.2°F6.2°C 91% Calm Calm 1.1 mph1.8 kmh 29.89 in1012.2 mb 0.00 in0.0 mm 0.00 in0.0 mm 0.00 in0.0 mm
04:35 AM 45.9°F7.7°C 43.4°F6.3°C 91% Calm Calm 0.9 mph1.4 kmh 29.89 in1012.2 mb 0.00 in0.0 mm 0.00 in0.0 mm 0.00 in0.0 mm
04:40 AM 45.9°F7.7°C 43.4°F6.3°C 91% Calm Calm 1.3 mph2.1 kmh 29.89 in1012.2 mb 0.00 in0.0 mm 0.00 in0.0 mm 0.00 in0.0 mm
04:45 AM 45.9°F7.7°C 43.4°F6.3°C 91% Calm Calm 1.3 mph2.1 kmh 29.89 in1012.2 mb 0.00 in0.0 mm 0.00 in0.0 mm 0.00 in0.0 mm
04:50 AM 45.9°F7.7°C 43.1°F6.2°C 90% Calm Calm -- 29.89 in1012.2 mb 0.00 in0.0 mm 0.00 in0.0 mm 0.00 in0.0 mm
04:55 AM 45.9°F7.7°C 43.1°F6.2°C 90% Calm Calm 1.1 mph1.8 kmh 29.89 in1012.2 mb 0.00 in0.0 mm 0.00 in0.0 mm 0.00 in0.0 mm
05:00 AM 45.7°F7.6°C 42.9°F6.1°C 90% Calm Calm 1.1 mph1.8 kmh 29.89 in1012.2 mb 0.00 in0.0 mm 0.00 in0.0 mm 0.00 in0.0 mm
05:05 AM 45.7°F7.6°C 42.9°F6.1°C 90% Calm Calm -- 29.89 in1012.2 mb 0.04 in1.0 mm 0.48 in12.2 mm 0.04 in1.0 mm
05:10 AM 45.7°F7.6°C 42.9°F6.1°C 90% Calm Calm -- 29.89 in1012.2 mb 0.04 in1.0 mm 0.00 in0.0 mm 0.04 in1.0 mm
05:15 AM 45.7°F7.6°C 42.9°F6.1°C 90% Calm Calm -- 29.89 in1012.2 mb 0.04 in1.0 mm 0.00 in0.0 mm 0.04 in1.0 mm
05:20 AM 45.7°F7.6°C 42.9°F6.1°C 90% Calm Calm -- 29.89 in1012.2 mb 0.04 in1.0 mm 0.00 in0.0 mm 0.04 in1.0 mm
05:25 AM 45.7°F7.6°C 42.9°F6.1°C 90% Calm Calm -- 29.89 in1012.2 mb 0.04 in1.0 mm 0.00 in0.0 mm 0.04 in1.0 mm
05:30 AM 45.7°F7.6°C 42.9°F6.1°C 90% Calm Calm -- 29.89 in1012.2 mb 0.04 in1.0 mm 0.00 in0.0 mm 0.04 in1.0 mm
05:35 AM 45.7°F7.6°C 42.9°F6.1°C 90% Calm Calm -- 29.89 in1012.2 mb 0.04 in1.0 mm 0.00 in0.0 mm 0.04 in1.0 mm
05:40 AM 45.7°F7.6°C 42.9°F6.1°C 90% Calm Calm -- 29.89 in1012.2 mb 0.04 in1.0 mm 0.00 in0.0 mm 0.04 in1.0 mm
05:45 AM 45.7°F7.6°C 42.9°F6.1°C 90% Calm Calm -- 29.89 in1012.2 mb 0.04 in1.0 mm 0.00 in0.0 mm 0.04 in1.0 mm
05:50 AM 45.7°F7.6°C 42.9°F6.1°C 90% Calm Calm -- 29.89 in1012.2 mb 0.04 in1.0 mm 0.00 in0.0 mm 0.04 in1.0 mm
05:55 AM 45.7°F7.6°C 42.9°F6.1°C 90% Calm Calm -- 29.89 in1012.2 mb 0.04 in1.0 mm 0.00 in0.0 mm 0.04 in1.0 mm
06:00 AM 45.5°F7.5°C 42.7°F5.9°C 90% Calm Calm -- 29.89 in1012.2 mb 0.04 in1.0 mm 0.00 in0.0 mm 0.04 in1.0 mm
06:05 AM 45.5°F7.5°C 42.7°F5.9°C 90% Calm Calm -- 29.89 in1012.2 mb 0.00 in0.0 mm 0.00 in0.0 mm 0.04 in1.0 mm
06:10 AM 45.5°F7.5°C 42.7°F5.9°C 90% Calm Calm -- 29.86 in1011.2 mb 0.00 in0.0 mm 0.00 in0.0 mm 0.04 in1.0 mm
06:15 AM 45.7°F7.6°C 42.9°F6.1°C 90% Calm Calm -- 29.86 in1011.2 mb 0.00 in0.0 mm 0.00 in0.0 mm 0.04 in1.0 mm
06:20 AM 45.7°F7.6°C 43.2°F6.2°C 91% Calm Calm -- 29.86 in1011.2 mb 0.00 in0.0 mm 0.00 in0.0 mm 0.04 in1.0 mm
06:25 AM 45.7°F7.6°C 43.2°F6.2°C 91% Calm Calm 1.3 mph2.1 kmh 29.86 in1011.2 mb 0.00 in0.0 mm 0.00 in0.0 mm 0.04 in1.0 mm
06:30 AM 45.7°F7.6°C 43.2°F6.2°C 91% Calm Calm 1.3 mph2.1 kmh 29.86 in1011.2 mb 0.00 in0.0 mm 0.00 in0.0 mm 0.04 in1.0 mm
06:35 AM 45.7°F7.6°C 43.2°F6.2°C 91% Calm Calm 1.3 mph2.1 kmh 29.86 in1011.2 mb 0.00 in0.0 mm 0.00 in0.0 mm 0.04 in1.0 mm
06:40 AM 45.7°F7.6°C 43.2°F6.2°C 91% Calm Calm 1.3 mph2.1 kmh 29.86 in1011.2 mb 0.00 in0.0 mm 0.00 in0.0 mm 0.04 in1.0 mm
06:45 AM 45.5°F7.5°C 43.0°F6.1°C 91% 0.9 mph SE1.4 kmh SE 2.7 mph4.3 kmh 29.86 in1011.2 mb 0.00 in0.0 mm 0.00 in0.0 mm 0.04 in1.0 mm
06:50 AM 45.5°F7.5°C 42.7°F5.9°C 90% Calm Calm 2.7 mph4.3 kmh 29.86 in1011.2 mb 0.00 in0.0 mm 0.00 in0.0 mm 0.04 in1.0 mm
06:55 AM 45.7°F7.6°C 43.2°F6.2°C 91% Calm Calm 1.1 mph1.8 kmh 29.86 in1011.2 mb 0.00 in0.0 mm 0.00 in0.0 mm 0.04 in1.0 mm
07:00 AM 45.7°F7.6°C 43.2°F6.2°C 91% Calm Calm -- 29.86 in1011.2 mb 0.00 in0.0 mm 0.00 in0.0 mm 0.04 in1.0 mm
07:05 AM 45.7°F7.6°C 43.2°F6.2°C 91% Calm Calm -- 29.86 in1011.2 mb 0.00 in0.0 mm 0.00 in0.0 mm 0.04 in1.0 mm
07:10 AM 45.7°F7.6°C 43.2°F6.2°C 91% Calm Calm -- 29.86 in1011.2 mb 0.00 in0.0 mm 0.00 in0.0 mm 0.04 in1.0 mm
07:15 AM 45.7°F7.6°C 43.2°F6.2°C 91% Calm Calm -- 29.86 in1011.2 mb 0.00 in0.0 mm 0.00 in0.0 mm 0.04 in1.0 mm
07:20 AM 45.7°F7.6°C 43.2°F6.2°C 91% Calm Calm -- 29.86 in1011.2 mb 0.00 in0.0 mm 0.00 in0.0 mm 0.04 in1.0 mm
07:25 AM 45.7°F7.6°C 43.2°F6.2°C 91% Calm Calm -- 29.86 in1011.2 mb 0.00 in0.0 mm 0.00 in0.0 mm 0.04 in1.0 mm
07:30 AM 45.7°F7.6°C 43.2°F6.2°C 91% Calm Calm -- 29.86 in1011.2 mb 0.00 in0.0 mm 0.00 in0.0 mm 0.04 in1.0 mm
07:35 AM 45.9°F7.7°C 43.4°F6.3°C 91% Calm Calm -- 29.86 in1011.2 mb 0.00 in0.0 mm 0.00 in0.0 mm 0.04 in1.0 mm
07:40 AM 45.9°F7.7°C 43.4°F6.3°C 91% Calm Calm -- 29.89 in1012.2 mb 0.00 in0.0 mm 0.00 in0.0 mm 0.04 in1.0 mm
07:45 AM 45.9°F7.7°C 43.4°F6.3°C 91% Calm Calm -- 29.89 in1012.2 mb 0.00 in0.0 mm 0.00 in0.0 mm 0.04 in1.0 mm
07:50 AM 45.9°F7.7°C 43.4°F6.3°C 91% Calm Calm -- 29.89 in1012.2 mb 0.00 in0.0 mm 0.00 in0.0 mm 0.04 in1.0 mm
07:55 AM 45.7°F7.6°C 43.2°F6.2°C 91% Calm Calm -- 29.89 in1012.2 mb 0.00 in0.0 mm 0.00 in0.0 mm 0.04 in1.0 mm
08:00 AM 45.7°F7.6°C 43.2°F6.2°C 91% Calm Calm -- 29.89 in1012.2 mb 0.04 in1.0 mm 0.04 in1.0 mm 0.08 in2.0 mm
08:05 AM 45.9°F7.7°C 43.4°F6.3°C 91% Calm Calm -- 29.89 in1012.2 mb 0.04 in1.0 mm 0.00 in0.0 mm 0.08 in2.0 mm
08:10 AM 45.9°F7.7°C 43.4°F6.3°C 91% Calm Calm -- 29.89 in1012.2 mb 0.04 in1.0 mm 0.00 in0.0 mm 0.08 in2.0 mm
08:15 AM 45.9°F7.7°C 43.4°F6.3°C 91% Calm Calm -- 29.89 in1012.2 mb 0.04 in1.0 mm 0.00 in0.0 mm 0.08 in2.0 mm
08:20 AM 45.9°F7.7°C 43.4°F6.3°C 91% Calm Calm -- 29.89 in1012.2 mb 0.04 in1.0 mm 0.00 in0.0 mm 0.08 in2.0 mm
08:25 AM 45.9°F7.7°C 43.4°F6.3°C 91% Calm Calm -- 29.86 in1011.2 mb 0.04 in1.0 mm 0.00 in0.0 mm 0.08 in2.0 mm
08:30 AM 45.9°F7.7°C 43.4°F6.3°C 91% Calm Calm -- 29.86 in1011.2 mb 0.04 in1.0 mm 0.00 in0.0 mm 0.08 in2.0 mm
08:35 AM 45.9°F7.7°C 43.7°F6.5°C 92% Calm Calm -- 29.86 in1011.2 mb 0.04 in1.0 mm 0.00 in0.0 mm 0.08 in2.0 mm
08:40 AM 45.9°F7.7°C 43.7°F6.5°C 92% Calm Calm -- 29.89 in1012.2 mb 0.04 in1.0 mm 0.00 in0.0 mm 0.08 in2.0 mm
08:45 AM 45.9°F7.7°C 43.7°F6.5°C 92% Calm Calm -- 29.89 in1012.2 mb 0.04 in1.0 mm 0.00 in0.0 mm 0.08 in2.0 mm
08:50 AM 45.9°F7.7°C 43.7°F6.5°C 92% Calm Calm -- 29.89 in1012.2 mb 0.04 in1.0 mm 0.00 in0.0 mm 0.08 in2.0 mm
08:55 AM 45.9°F7.7°C 44.0°F6.7°C 93% 0.9 mph ESE1.4 kmh ESE 1.3 mph2.1 kmh 29.86 in1011.2 mb 0.04 in1.0 mm 0.00 in0.0 mm 0.08 in2.0 mm
09:00 AM 45.9°F7.7°C 44.0°F6.7°C 93% 1.6 mph ESE2.6 kmh ESE 2.7 mph4.3 kmh 29.86 in1011.2 mb 0.00 in0.0 mm 0.00 in0.0 mm 0.08 in2.0 mm
09:05 AM 45.9°F7.7°C 44.0°F6.7°C 93% 1.1 mph ESE1.8 kmh ESE 2.7 mph4.3 kmh 29.86 in1011.2 mb 0.00 in0.0 mm 0.00 in0.0 mm 0.08 in2.0 mm
09:10 AM 45.9°F7.7°C 44.0°F6.7°C 93% Calm Calm 2.7 mph4.3 kmh 29.89 in1012.2 mb 0.00 in0.0 mm 0.00 in0.0 mm 0.08 in2.0 mm
09:15 AM 45.9°F7.7°C 44.0°F6.7°C 93% Calm Calm 2.7 mph4.3 kmh 29.89 in1012.2 mb 0.05 in1.3 mm 0.60 in15.2 mm 0.13 in3.3 mm
09:20 AM 46.0°F7.8°C 44.1°F6.7°C 93% Calm Calm -- 29.89 in1012.2 mb 0.05 in1.3 mm 0.00 in0.0 mm 0.13 in3.3 mm
09:25 AM 46.0°F7.8°C 44.1°F6.7°C 93% Calm Calm -- 29.89 in1012.2 mb 0.05 in1.3 mm 0.00 in0.0 mm 0.13 in3.3 mm
09:30 AM 46.0°F7.8°C 44.1°F6.7°C 93% Calm Calm -- 29.89 in1012.2 mb 0.05 in1.3 mm 0.00 in0.0 mm 0.13 in3.3 mm
09:35 AM 46.0°F7.8°C 43.8°F6.6°C 92% Calm Calm -- 29.89 in1012.2 mb 0.05 in1.3 mm 0.00 in0.0 mm 0.13 in3.3 mm
09:40 AM 46.0°F7.8°C 43.8°F6.6°C 92% Calm Calm -- 29.89 in1012.2 mb 0.05 in1.3 mm 0.00 in0.0 mm 0.13 in3.3 mm
09:45 AM 46.0°F7.8°C 43.8°F6.6°C 92% Calm Calm -- 29.89 in1012.2 mb 0.05 in1.3 mm 0.00 in0.0 mm 0.13 in3.3 mm
09:50 AM 46.0°F7.8°C 43.8°F6.6°C 92% Calm Calm -- 29.89 in1012.2 mb 0.08 in2.0 mm 0.36 in9.1 mm 0.16 in4.1 mm
09:55 AM 46.0°F7.8°C 43.8°F6.6°C 92% 1.1 mph ESE1.8 kmh ESE 2.5 mph4.0 kmh 29.89 in1012.2 mb 0.08 in2.0 mm 0.00 in0.0 mm 0.16 in4.1 mm
10:00 AM 46.0°F7.8°C 44.1°F6.7°C 93% Calm Calm 2.5 mph4.0 kmh 29.89 in1012.2 mb 0.08 in2.0 mm 0.00 in0.0 mm 0.16 in4.1 mm
10:05 AM 46.2°F7.9°C 44.3°F6.8°C 93% Calm Calm 2.0 mph3.2 kmh 29.89 in1012.2 mb 0.08 in2.0 mm 0.00 in0.0 mm 0.16 in4.1 mm
10:10 AM 46.2°F7.9°C 44.3°F6.8°C 93% Calm Calm 1.1 mph1.8 kmh 29.89 in1012.2 mb 0.08 in2.0 mm 0.00 in0.0 mm 0.16 in4.1 mm
10:15 AM 46.2°F7.9°C 44.3°F6.8°C 93% Calm Calm 0.9 mph1.4 kmh 29.89 in1012.2 mb 0.08 in2.0 mm 0.00 in0.0 mm 0.21 in5.3 mm
10:20 AM 46.2°F7.9°C 44.3°F6.8°C 93% Calm Calm 1.3 mph2.1 kmh 29.89 in1012.2 mb 0.08 in2.0 mm 0.00 in0.0 mm 0.21 in5.3 mm
10:25 AM 46.2°F7.9°C 44.3°F6.8°C 93% Calm Calm 1.3 mph2.1 kmh 29.89 in1012.2 mb 0.08 in2.0 mm 0.00 in0.0 mm 0.21 in5.3 mm
10:30 AM 46.2°F7.9°C 44.3°F6.8°C 93% Calm Calm 1.3 mph2.1 kmh 29.89 in1012.2 mb 0.08 in2.0 mm 0.00 in0.0 mm 0.21 in5.3 mm
10:35 AM 46.2°F7.9°C 44.3°F6.8°C 93% Calm Calm 0.9 mph1.4 kmh 29.89 in1012.2 mb 0.08 in2.0 mm 0.00 in0.0 mm 0.21 in5.3 mm
10:40 AM 46.2°F7.9°C 44.3°F6.8°C 93% Calm Calm 0.9 mph1.4 kmh 29.89 in1012.2 mb 0.08 in2.0 mm 0.00 in0.0 mm 0.21 in5.3 mm
10:45 AM 46.2°F7.9°C 44.3°F6.8°C 93% 1.6 mph W2.6 kmh W 2.2 mph3.5 kmh 29.89 in1012.2 mb 0.05 in1.3 mm 0.00 in0.0 mm 0.21 in5.3 mm
10:50 AM 46.2°F7.9°C 44.3°F6.8°C 93% Calm Calm 2.2 mph3.5 kmh 29.89 in1012.2 mb 0.05 in1.3 mm 0.00 in0.0 mm 0.21 in5.3 mm
10:55 AM 46.2°F7.9°C 44.3°F6.8°C 93% Calm Calm 2.2 mph3.5 kmh 29.86 in1011.2 mb 0.05 in1.3 mm 0.00 in0.0 mm 0.21 in5.3 mm
11:00 AM 46.4°F8.0°C 44.2°F6.8°C 92% 1.1 mph E1.8 kmh E 1.6 mph2.6 kmh 29.86 in1011.2 mb 0.05 in1.3 mm 0.00 in0.0 mm 0.21 in5.3 mm
11:05 AM 46.4°F8.0°C 44.5°F6.9°C 93% 1.6 mph ESE2.6 kmh ESE 2.7 mph4.3 kmh 29.86 in1011.2 mb 0.05 in1.3 mm 0.00 in0.0 mm 0.21 in5.3 mm
11:10 AM 46.4°F8.0°C 44.5°F6.9°C 93% 0.9 mph ESE1.4 kmh ESE 2.7 mph4.3 kmh 29.86 in1011.2 mb 0.09 in2.3 mm 0.48 in12.2 mm 0.25 in6.4 mm
11:15 AM 46.4°F8.0°C 44.5°F6.9°C 93% Calm Calm 2.0 mph3.2 kmh 29.86 in1011.2 mb 0.04 in1.0 mm 0.00 in0.0 mm 0.25 in6.4 mm
11:20 AM 46.6°F8.1°C 44.7°F7.1°C 93% Calm Calm 2.0 mph3.2 kmh 29.86 in1011.2 mb 0.04 in1.0 mm 0.00 in0.0 mm 0.25 in6.4 mm
11:25 AM 46.6°F8.1°C 44.7°F7.1°C 93% Calm Calm 2.2 mph3.5 kmh 29.86 in1011.2 mb 0.04 in1.0 mm 0.00 in0.0 mm 0.25 in6.4 mm
11:30 AM 46.6°F8.1°C 44.7°F7.1°C 93% Calm Calm 2.2 mph3.5 kmh 29.86 in1011.2 mb 0.04 in1.0 mm 0.00 in0.0 mm 0.25 in6.4 mm
11:35 AM 46.6°F8.1°C 44.7°F7.1°C 93% Calm Calm 1.3 mph2.1 kmh 29.86 in1011.2 mb 0.04 in1.0 mm 0.00 in0.0 mm 0.25 in6.4 mm
11:40 AM 46.6°F8.1°C 44.7°F7.1°C 93% Calm Calm 1.1 mph1.8 kmh 29.86 in1011.2 mb 0.08 in2.0 mm 0.48 in12.2 mm 0.29 in7.4 mm
11:45 AM 46.8°F8.2°C 44.8°F7.1°C 93% Calm Calm 1.1 mph1.8 kmh 29.86 in1011.2 mb 0.08 in2.0 mm 0.00 in0.0 mm 0.29 in7.4 mm
11:50 AM 46.8°F8.2°C 44.8°F7.1°C 93% Calm Calm -- 29.86 in1011.2 mb 0.08 in2.0 mm 0.00 in0.0 mm 0.29 in7.4 mm
11:55 AM 46.8°F8.2°C 44.8°F7.1°C 93% Calm Calm -- 29.86 in1011.2 mb 0.08 in2.0 mm 0.00 in0.0 mm 0.29 in7.4 mm
12:00 PM 46.9°F8.3°C 45.0°F7.2°C 93% Calm Calm -- 29.86 in1011.2 mb 0.08 in2.0 mm 0.00 in0.0 mm 0.29 in7.4 mm
12:05 PM 46.9°F8.3°C 45.0°F7.2°C 93% Calm Calm -- 29.86 in1011.2 mb 0.08 in2.0 mm 0.00 in0.0 mm 0.29 in7.4 mm
12:10 PM 46.9°F8.3°C 45.0°F7.2°C 93% Calm Calm 1.6 mph2.6 kmh 29.83 in1010.2 mb 0.04 in1.0 mm 0.00 in0.0 mm 0.29 in7.4 mm
12:15 PM 46.9°F8.3°C 45.0°F7.2°C 93% Calm Calm 1.6 mph2.6 kmh 29.83 in1010.2 mb 0.04 in1.0 mm 0.00 in0.0 mm 0.29 in7.4 mm
12:20 PM 46.9°F8.3°C 45.0°F7.2°C 93% Calm Calm -- 29.83 in1010.2 mb 0.08 in2.0 mm 0.48 in12.2 mm 0.33 in8.4 mm
12:25 PM 46.9°F8.3°C 45.0°F7.2°C 93% 0.9 mph NW1.4 kmh NW 1.3 mph2.1 kmh 29.83 in1010.2 mb 0.08 in2.0 mm 0.00 in0.0 mm 0.33 in8.4 mm
12:30 PM 46.9°F8.3°C 45.0°F7.2°C 93% Calm Calm 1.3 mph2.1 kmh 29.83 in1010.2 mb 0.08 in2.0 mm 0.00 in0.0 mm 0.33 in8.4 mm
12:35 PM 47.1°F8.4°C 45.2°F7.3°C 93% Calm Calm -- 29.83 in1010.2 mb 0.08 in2.0 mm 0.00 in0.0 mm 0.33 in8.4 mm
12:40 PM 47.1°F8.4°C 45.2°F7.3°C 93% Calm Calm -- 29.83 in1010.2 mb 0.08 in2.0 mm 0.00 in0.0 mm 0.37 in9.4 mm
12:45 PM 47.1°F8.4°C 45.2°F7.3°C 93% Calm Calm -- 29.83 in1010.2 mb 0.08 in2.0 mm 0.00 in0.0 mm 0.37 in9.4 mm
12:50 PM 47.1°F8.4°C 45.2°F7.3°C 93% Calm Calm -- 29.83 in1010.2 mb 0.08 in2.0 mm 0.00 in0.0 mm 0.37 in9.4 mm
12:55 PM 47.1°F8.4°C 45.2°F7.3°C 93% Calm Calm -- 29.80 in1009.1 mb 0.13 in3.3 mm 0.60 in15.2 mm 0.42 in10.7 mm
01:00 PM 47.1°F8.4°C 45.2°F7.3°C 93% Calm Calm -- 29.80 in1009.1 mb 0.13 in3.3 mm 0.00 in0.0 mm 0.42 in10.7 mm
01:05 PM 47.3°F8.5°C 45.4°F7.4°C 93% Calm Calm -- 29.80 in1009.1 mb 0.13 in3.3 mm 0.00 in0.0 mm 0.42 in10.7 mm
01:10 PM 47.3°F8.5°C 45.4°F7.4°C 93% Calm Calm -- 29.80 in1009.1 mb 0.13 in3.3 mm 0.00 in0.0 mm 0.42 in10.7 mm
01:15 PM 47.3°F8.5°C 45.4°F7.4°C 93% Calm Calm -- 29.80 in1009.1 mb 0.13 in3.3 mm 0.00 in0.0 mm 0.42 in10.7 mm
01:20 PM 47.3°F8.5°C 45.4°F7.4°C 93% Calm Calm -- 29.80 in1009.1 mb 0.13 in3.3 mm 0.00 in0.0 mm 0.46 in11.7 mm
01:25 PM 47.3°F8.5°C 45.4°F7.4°C 93% Calm Calm -- 29.77 in1008.1 mb 0.13 in3.3 mm 0.00 in0.0 mm 0.46 in11.7 mm
01:30 PM 47.3°F8.5°C 45.4°F7.4°C 93% Calm Calm -- 29.77 in1008.1 mb 0.13 in3.3 mm 0.00 in0.0 mm 0.46 in11.7 mm
01:35 PM 47.3°F8.5°C 45.4°F7.4°C 93% Calm Calm -- 29.77 in1008.1 mb 0.13 in3.3 mm 0.00 in0.0 mm 0.46 in11.7 mm
01:40 PM 47.5°F8.6°C 45.6°F7.6°C 93% Calm Calm -- 29.77 in1008.1 mb 0.09 in2.3 mm 0.00 in0.0 mm 0.46 in11.7 mm
01:45 PM 47.5°F8.6°C 45.6°F7.6°C 93% Calm Calm -- 29.77 in1008.1 mb 0.09 in2.3 mm 0.00 in0.0 mm 0.46 in11.7 mm
01:50 PM 47.5°F8.6°C 45.6°F7.6°C 93% Calm Calm -- 29.77 in1008.1 mb 0.13 in3.3 mm 0.48 in12.2 mm 0.50 in12.7 mm
01:55 PM 47.5°F8.6°C 45.6°F7.6°C 93% Calm Calm -- 29.77 in1008.1 mb 0.08 in2.0 mm 0.00 in0.0 mm 0.50 in12.7 mm
02:00 PM 47.5°F8.6°C 45.6°F7.6°C 93% Calm Calm -- 29.77 in1008.1 mb 0.08 in2.0 mm 0.00 in0.0 mm 0.50 in12.7 mm
02:05 PM 47.5°F8.6°C 45.6°F7.6°C 93% Calm Calm -- 29.77 in1008.1 mb 0.08 in2.0 mm 0.00 in0.0 mm 0.50 in12.7 mm
02:10 PM 47.5°F8.6°C 45.6°F7.6°C 93% Calm Calm -- 29.77 in1008.1 mb 0.08 in2.0 mm 0.00 in0.0 mm 0.50 in12.7 mm
02:15 PM 47.5°F8.6°C 45.6°F7.6°C 93% Calm Calm -- 29.77 in1008.1 mb 0.12 in3.0 mm 0.48 in12.2 mm 0.54 in13.7 mm
02:20 PM 47.5°F8.6°C 45.6°F7.6°C 93% Calm Calm -- 29.77 in1008.1 mb 0.08 in2.0 mm 0.00 in0.0 mm 0.54 in13.7 mm
02:25 PM 47.3°F8.5°C 45.4°F7.4°C 93% Calm Calm -- 29.74 in1007.1 mb 0.08 in2.0 mm 0.00 in0.0 mm 0.54 in13.7 mm
02:30 PM 47.3°F8.5°C 45.4°F7.4°C 93% Calm Calm -- 29.74 in1007.1 mb 0.08 in2.0 mm 0.00 in0.0 mm 0.54 in13.7 mm
02:35 PM 47.3°F8.5°C 45.4°F7.4°C 93% Calm Calm -- 29.74 in1007.1 mb 0.12 in3.0 mm 0.48 in12.2 mm 0.58 in14.7 mm
02:40 PM 47.5°F8.6°C 45.6°F7.6°C 93% Calm Calm -- 29.71 in1006.1 mb 0.12 in3.0 mm 0.00 in0.0 mm 0.58 in14.7 mm
02:45 PM 47.5°F8.6°C 45.6°F7.6°C 93% Calm Calm -- 29.71 in1006.1 mb 0.12 in3.0 mm 0.00 in0.0 mm 0.58 in14.7 mm
02:50 PM 47.5°F8.6°C 45.6°F7.6°C 93% Calm Calm -- 29.71 in1006.1 mb 0.08 in2.0 mm 0.00 in0.0 mm 0.58 in14.7 mm
02:55 PM 47.5°F8.6°C 45.6°F7.6°C 93% Calm Calm -- 29.71 in1006.1 mb 0.08 in2.0 mm 0.00 in0.0 mm 0.58 in14.7 mm
03:00 PM 47.5°F8.6°C 45.6°F7.6°C 93% Calm Calm -- 29.71 in1006.1 mb 0.12 in3.0 mm 0.04 in1.0 mm 0.62 in15.7 mm
03:05 PM 47.5°F8.6°C 45.6°F7.6°C 93% Calm Calm -- 29.71 in1006.1 mb 0.12 in3.0 mm 0.00 in0.0 mm 0.62 in15.7 mm
03:10 PM 47.5°F8.6°C 45.6°F7.6°C 93% Calm Calm -- 29.71 in1006.1 mb 0.08 in2.0 mm 0.00 in0.0 mm 0.62 in15.7 mm
03:15 PM 47.5°F8.6°C 45.6°F7.6°C 93% Calm Calm -- 29.71 in1006.1 mb 0.08 in2.0 mm 0.00 in0.0 mm 0.62 in15.7 mm
03:20 PM 47.5°F8.6°C 45.6°F7.6°C 93% Calm Calm -- 29.71 in1006.1 mb 0.08 in2.0 mm 0.00 in0.0 mm 0.62 in15.7 mm
03:25 PM 47.5°F8.6°C 45.6°F7.6°C 93% 0.9 mph SSW1.4 kmh SSW 1.3 mph2.1 kmh 29.71 in1006.1 mb 0.08 in2.0 mm 0.00 in0.0 mm 0.62 in15.7 mm
03:30 PM 47.5°F8.6°C 45.6°F7.6°C 93% Calm Calm 1.3 mph2.1 kmh 29.71 in1006.1 mb 0.08 in2.0 mm 0.00 in0.0 mm 0.62 in15.7 mm
03:35 PM 47.5°F8.6°C 45.6°F7.6°C 93% Calm Calm 0.9 mph1.4 kmh 29.71 in1006.1 mb 0.08 in2.0 mm 0.00 in0.0 mm 0.66 in16.8 mm
03:40 PM 47.5°F8.6°C 45.6°F7.6°C 93% Calm Calm -- 29.71 in1006.1 mb 0.08 in2.0 mm 0.00 in0.0 mm 0.66 in16.8 mm
03:45 PM 47.5°F8.6°C 45.6°F7.6°C 93% Calm Calm -- 29.71 in1006.1 mb 0.08 in2.0 mm 0.00 in0.0 mm 0.66 in16.8 mm
03:50 PM 47.7°F8.7°C 45.7°F7.6°C 93% Calm Calm 1.3 mph2.1 kmh 29.71 in1006.1 mb 0.08 in2.0 mm 0.00 in0.0 mm 0.66 in16.8 mm
03:55 PM 47.5°F8.6°C 45.6°F7.6°C 93% Calm Calm 1.3 mph2.1 kmh 29.68 in1005.1 mb 0.12 in3.0 mm 0.48 in12.2 mm 0.70 in17.8 mm
04:00 PM 47.5°F8.6°C 45.6°F7.6°C 93% Calm Calm -- 29.68 in1005.1 mb 0.08 in2.0 mm 0.00 in0.0 mm 0.70 in17.8 mm
04:05 PM 47.5°F8.6°C 45.6°F7.6°C 93% Calm Calm -- 29.68 in1005.1 mb 0.08 in2.0 mm 0.00 in0.0 mm 0.70 in17.8 mm
04:10 PM 47.7°F8.7°C 45.7°F7.6°C 93% Calm Calm -- 29.65 in1004.1 mb 0.08 in2.0 mm 0.00 in0.0 mm 0.70 in17.8 mm
04:15 PM 47.7°F8.7°C 45.7°F7.6°C 93% 1.1 mph WNW1.8 kmh WNW 2.5 mph4.0 kmh 29.65 in1004.1 mb 0.08 in2.0 mm 0.00 in0.0 mm 0.70 in17.8 mm
04:20 PM 47.5°F8.6°C 45.6°F7.6°C 93% 1.1 mph WNW1.8 kmh WNW 2.7 mph4.3 kmh 29.65 in1004.1 mb 0.13 in3.3 mm 0.60 in15.2 mm 0.75 in19.1 mm
04:25 PM 47.7°F8.7°C 45.7°F7.6°C 93% 1.3 mph W2.1 kmh W 3.4 mph5.5 kmh 29.68 in1005.1 mb 0.13 in3.3 mm 0.00 in0.0 mm 0.75 in19.1 mm
04:30 PM 47.7°F8.7°C 45.7°F7.6°C 93% 2.9 mph SSW4.7 kmh SSW 5.4 mph8.7 kmh 29.68 in1005.1 mb 0.17 in4.3 mm 0.48 in12.2 mm 0.79 in20.1 mm
04:35 PM 47.7°F8.7°C 45.7°F7.6°C 93% 2.0 mph SSW3.2 kmh SSW 5.4 mph8.7 kmh 29.68 in1005.1 mb 0.17 in4.3 mm 0.00 in0.0 mm 0.83 in21.1 mm
04:40 PM 47.7°F8.7°C 45.7°F7.6°C 93% 2.0 mph SW3.2 kmh SW 4.3 mph6.9 kmh 29.71 in1006.1 mb 0.21 in5.3 mm 0.48 in12.2 mm 0.87 in22.1 mm
04:45 PM 47.8°F8.8°C 46.2°F7.9°C 94% 2.5 mph E4.0 kmh E 4.0 mph6.4 kmh 29.71 in1006.1 mb 0.21 in5.3 mm 0.00 in0.0 mm 0.87 in22.1 mm
04:50 PM 47.8°F8.8°C 46.2°F7.9°C 94% 2.2 mph ESE3.5 kmh ESE 4.5 mph7.2 kmh 29.71 in1006.1 mb 0.25 in6.4 mm 0.48 in12.2 mm 0.91 in23.1 mm
04:55 PM 48.0°F8.9°C 46.4°F8.0°C 94% Calm Calm 4.5 mph7.2 kmh 29.68 in1005.1 mb 0.21 in5.3 mm 0.00 in0.0 mm 0.91 in23.1 mm
05:00 PM 47.8°F8.8°C 46.2°F7.9°C 94% Calm Calm 3.1 mph5.0 kmh 29.68 in1005.1 mb 0.21 in5.3 mm 0.00 in0.0 mm 0.91 in23.1 mm
05:05 PM 47.8°F8.8°C 46.2°F7.9°C 94% Calm Calm 1.1 mph1.8 kmh 29.68 in1005.1 mb 0.21 in5.3 mm 0.00 in0.0 mm 0.91 in23.1 mm
05:10 PM 48.0°F8.9°C 46.4°F8.0°C 94% Calm Calm -- 29.65 in1004.1 mb 0.26 in6.6 mm 0.60 in15.2 mm 0.96 in24.4 mm
05:15 PM 48.0°F8.9°C 46.4°F8.0°C 94% Calm Calm -- 29.65 in1004.1 mb 0.26 in6.6 mm 0.00 in0.0 mm 0.96 in24.4 mm
05:20 PM 48.0°F8.9°C 46.4°F8.0°C 94% Calm Calm 0.9 mph1.4 kmh 29.65 in1004.1 mb 0.21 in5.3 mm 0.00 in0.0 mm 0.96 in24.4 mm
05:25 PM 48.0°F8.9°C 46.4°F8.0°C 94% 1.1 mph WSW1.8 kmh WSW 1.6 mph2.6 kmh 29.65 in1004.1 mb 0.21 in5.3 mm 0.00 in0.0 mm 0.96 in24.4 mm
05:30 PM 48.0°F8.9°C 46.4°F8.0°C 94% Calm Calm 2.7 mph4.3 kmh 29.65 in1004.1 mb 0.21 in5.3 mm 0.00 in0.0 mm 1.00 in25.4 mm
05:35 PM 48.0°F8.9°C 46.4°F8.0°C 94% Calm Calm 2.7 mph4.3 kmh 29.65 in1004.1 mb 0.21 in5.3 mm 0.00 in0.0 mm 1.04 in26.4 mm
05:40 PM 48.2°F9.0°C 46.6°F8.1°C 94% 3.4 mph E5.5 kmh E 4.0 mph6.4 kmh 29.68 in1005.1 mb 0.21 in5.3 mm 0.00 in0.0 mm 1.08 in27.4 mm
05:45 PM 48.2°F9.0°C 46.6°F8.1°C 94% 2.0 mph E3.2 kmh E 4.0 mph6.4 kmh 29.68 in1005.1 mb 0.21 in5.3 mm 0.00 in0.0 mm 1.08 in27.4 mm
05:50 PM 48.2°F9.0°C 46.6°F8.1°C 94% 1.3 mph E2.1 kmh E 4.0 mph6.4 kmh 29.68 in1005.1 mb 0.17 in4.3 mm 0.00 in0.0 mm 1.08 in27.4 mm
05:55 PM 48.2°F9.0°C 46.6°F8.1°C 94% 2.0 mph SE3.2 kmh SE 3.6 mph5.8 kmh 29.65 in1004.1 mb 0.21 in5.3 mm 0.48 in12.2 mm 1.12 in28.4 mm
06:00 PM 48.2°F9.0°C 46.6°F8.1°C 94% 0.9 mph SE1.4 kmh SE 4.9 mph7.9 kmh 29.65 in1004.1 mb 0.21 in5.3 mm 0.00 in0.0 mm 1.12 in28.4 mm
06:05 PM 48.2°F9.0°C 46.6°F8.1°C 94% 3.8 mph SE6.1 kmh SE 4.9 mph7.9 kmh 29.65 in1004.1 mb 0.21 in5.3 mm 0.00 in0.0 mm 1.12 in28.4 mm
06:10 PM 48.2°F9.0°C 46.6°F8.1°C 94% Calm Calm 4.3 mph6.9 kmh 29.62 in1003.0 mb 0.16 in4.1 mm 0.00 in0.0 mm 1.12 in28.4 mm
06:15 PM 48.2°F9.0°C 46.6°F8.1°C 94% Calm Calm 4.0 mph6.4 kmh 29.62 in1003.0 mb 0.16 in4.1 mm 0.00 in0.0 mm 1.12 in28.4 mm
06:20 PM 48.2°F9.0°C 46.6°F8.1°C 94% 2.0 mph ESE3.2 kmh ESE 3.4 mph5.5 kmh 29.62 in1003.0 mb 0.20 in5.1 mm 0.48 in12.2 mm 1.16 in29.5 mm
06:25 PM 48.2°F9.0°C 46.6°F8.1°C 94% Calm Calm 3.6 mph5.8 kmh 29.65 in1004.1 mb 0.20 in5.1 mm 0.00 in0.0 mm 1.16 in29.5 mm
06:30 PM 48.2°F9.0°C 46.6°F8.1°C 94% Calm Calm 3.6 mph5.8 kmh 29.65 in1004.1 mb 0.16 in4.1 mm 0.00 in0.0 mm 1.16 in29.5 mm
06:35 PM 48.2°F9.0°C 46.6°F8.1°C 94% 1.3 mph NE2.1 kmh NE 2.7 mph4.3 kmh 29.65 in1004.1 mb 0.16 in4.1 mm 0.00 in0.0 mm 1.20 in30.5 mm
06:40 PM 48.2°F9.0°C 46.6°F8.1°C 94% 1.6 mph WNW2.6 kmh WNW 3.1 mph5.0 kmh 29.65 in1004.1 mb 0.12 in3.0 mm 0.00 in0.0 mm 1.20 in30.5 mm
06:45 PM 48.2°F9.0°C 46.6°F8.1°C 94% 0.9 mph WNW1.4 kmh WNW 3.1 mph5.0 kmh 29.65 in1004.1 mb 0.12 in3.0 mm 0.00 in0.0 mm 1.20 in30.5 mm
06:50 PM 48.0°F8.9°C 46.4°F8.0°C 94% Calm Calm 2.9 mph4.7 kmh 29.65 in1004.1 mb 0.12 in3.0 mm 0.00 in0.0 mm 1.20 in30.5 mm
06:55 PM 48.2°F9.0°C 46.6°F8.1°C 94% 2.7 mph SE4.3 kmh SE 3.6 mph5.8 kmh 29.68 in1005.1 mb 0.12 in3.0 mm 0.00 in0.0 mm 1.24 in31.5 mm
07:00 PM 48.2°F9.0°C 46.6°F8.1°C 94% 2.2 mph E3.5 kmh E 3.6 mph5.8 kmh 29.68 in1005.1 mb 0.12 in3.0 mm 0.00 in0.0 mm 1.24 in31.5 mm
07:05 PM 48.2°F9.0°C 46.6°F8.1°C 94% Calm Calm 3.6 mph5.8 kmh 29.68 in1005.1 mb 0.12 in3.0 mm 0.00 in0.0 mm 1.24 in31.5 mm
07:10 PM 48.2°F9.0°C 46.6°F8.1°C 94% 0.9 mph ESE1.4 kmh ESE 3.1 mph5.0 kmh 29.65 in1004.1 mb 0.12 in3.0 mm 0.00 in0.0 mm 1.24 in31.5 mm
07:15 PM 48.2°F9.0°C 46.6°F8.1°C 94% 1.6 mph SSE2.6 kmh SSE 2.0 mph3.2 kmh 29.65 in1004.1 mb 0.12 in3.0 mm 0.00 in0.0 mm 1.24 in31.5 mm
07:20 PM 48.2°F9.0°C 46.6°F8.1°C 94% Calm Calm 2.0 mph3.2 kmh 29.65 in1004.1 mb 0.13 in3.3 mm 0.12 in3.0 mm 1.29 in32.8 mm
07:25 PM 48.2°F9.0°C 46.6°F8.1°C 94% 0.9 mph NW1.4 kmh NW 2.0 mph3.2 kmh 29.62 in1003.0 mb 0.13 in3.3 mm 0.00 in0.0 mm 1.29 in32.8 mm
07:30 PM 48.4°F9.1°C 46.7°F8.2°C 94% 2.9 mph SE4.7 kmh SE 3.4 mph5.5 kmh 29.62 in1003.0 mb 0.13 in3.3 mm 0.00 in0.0 mm 1.33 in33.8 mm
07:35 PM 48.4°F9.1°C 46.7°F8.2°C 94% Calm Calm 3.4 mph5.5 kmh 29.62 in1003.0 mb 0.13 in3.3 mm 0.00 in0.0 mm 1.33 in33.8 mm
07:40 PM 48.4°F9.1°C 46.7°F8.2°C 94% Calm Calm 2.0 mph3.2 kmh 29.62 in1003.0 mb 0.13 in3.3 mm 0.00 in0.0 mm 1.33 in33.8 mm
07:45 PM 48.4°F9.1°C 46.7°F8.2°C 94% Calm Calm 2.7 mph4.3 kmh 29.62 in1003.0 mb 0.13 in3.3 mm 0.00 in0.0 mm 1.33 in33.8 mm
07:50 PM 48.2°F9.0°C 46.6°F8.1°C 94% Calm Calm 2.7 mph4.3 kmh 29.62 in1003.0 mb 0.17 in4.3 mm 0.48 in12.2 mm 1.37 in34.8 mm
07:55 PM 48.2°F9.0°C 46.6°F8.1°C 94% 1.3 mph SW2.1 kmh SW 2.2 mph3.5 kmh 29.62 in1003.0 mb 0.17 in4.3 mm 0.00 in0.0 mm 1.41 in35.8 mm
08:00 PM 48.2°F9.0°C 46.6°F8.1°C 94% Calm Calm 2.2 mph3.5 kmh 29.62 in1003.0 mb 0.17 in4.3 mm 0.00 in0.0 mm 1.41 in35.8 mm
08:05 PM 48.2°F9.0°C 46.6°F8.1°C 94% Calm Calm 1.6 mph2.6 kmh 29.62 in1003.0 mb 0.21 in5.3 mm 0.48 in12.2 mm 1.45 in36.8 mm
08:10 PM 48.2°F9.0°C 46.6°F8.1°C 94% Calm Calm 1.6 mph2.6 kmh 29.59 in1002.0 mb 0.21 in5.3 mm 0.00 in0.0 mm 1.45 in36.8 mm
08:15 PM 48.2°F9.0°C 46.6°F8.1°C 94% 2.2 mph WNW3.5 kmh WNW 3.6 mph5.8 kmh 29.59 in1002.0 mb 0.20 in5.1 mm 0.00 in0.0 mm 1.49 in37.8 mm
08:20 PM 48.2°F9.0°C 46.6°F8.1°C 94% Calm Calm 3.6 mph5.8 kmh 29.59 in1002.0 mb 0.20 in5.1 mm 0.00 in0.0 mm 1.49 in37.8 mm
08:25 PM 48.2°F9.0°C 46.6°F8.1°C 94% Calm Calm 1.3 mph2.1 kmh 29.56 in1001.0 mb 0.20 in5.1 mm 0.00 in0.0 mm 1.49 in37.8 mm
08:30 PM 48.2°F9.0°C 46.6°F8.1°C 94% 0.9 mph N1.4 kmh N 2.0 mph3.2 kmh 29.56 in1001.0 mb 0.20 in5.1 mm 0.00 in0.0 mm 1.53 in38.9 mm
08:35 PM 48.2°F9.0°C 46.6°F8.1°C 94% Calm Calm 2.0 mph3.2 kmh 29.56 in1001.0 mb 0.20 in5.1 mm 0.00 in0.0 mm 1.53 in38.9 mm
08:40 PM 48.2°F9.0°C 46.6°F8.1°C 94% Calm Calm 6.5 mph10.5 kmh 29.59 in1002.0 mb 0.20 in5.1 mm 0.00 in0.0 mm 1.53 in38.9 mm
08:45 PM 48.2°F9.0°C 46.6°F8.1°C 94% Calm Calm 6.5 mph10.5 kmh 29.59 in1002.0 mb 0.24 in6.1 mm 0.48 in12.2 mm 1.57 in39.9 mm
08:50 PM 48.4°F9.1°C 46.7°F8.2°C 94% Calm Calm 1.6 mph2.6 kmh 29.59 in1002.0 mb 0.25 in6.4 mm 0.12 in3.0 mm 1.62 in41.1 mm
08:55 PM 48.4°F9.1°C 46.7°F8.2°C 94% 1.3 mph E2.1 kmh E 2.0 mph3.2 kmh 29.59 in1002.0 mb 0.25 in6.4 mm 0.00 in0.0 mm 1.66 in42.2 mm
09:00 PM 48.4°F9.1°C 46.7°F8.2°C 94% Calm Calm 3.8 mph6.1 kmh 29.59 in1002.0 mb 0.25 in6.4 mm 0.00 in0.0 mm 1.66 in42.2 mm
09:05 PM 48.4°F9.1°C 46.7°F8.2°C 94% Calm Calm 3.8 mph6.1 kmh 29.59 in1002.0 mb 0.25 in6.4 mm 0.00 in0.0 mm 1.70 in43.2 mm
09:10 PM 48.4°F9.1°C 46.7°F8.2°C 94% Calm Calm 2.2 mph3.5 kmh 29.59 in1002.0 mb 0.29 in7.4 mm 0.48 in12.2 mm 1.74 in44.2 mm
09:15 PM 48.4°F9.1°C 46.7°F8.2°C 94% 1.3 mph SE2.1 kmh SE 3.6 mph5.8 kmh 29.59 in1002.0 mb 0.29 in7.4 mm 0.00 in0.0 mm 1.78 in45.2 mm
09:20 PM 48.4°F9.1°C 46.7°F8.2°C 94% Calm Calm 3.6 mph5.8 kmh 29.59 in1002.0 mb 0.29 in7.4 mm 0.00 in0.0 mm 1.78 in45.2 mm
09:25 PM 48.4°F9.1°C 46.7°F8.2°C 94% Calm Calm 3.1 mph5.0 kmh 29.59 in1002.0 mb 0.34 in8.6 mm 0.60 in15.2 mm 1.83 in46.5 mm
09:30 PM 48.4°F9.1°C 46.7°F8.2°C 94% Calm Calm 3.6 mph5.8 kmh 29.59 in1002.0 mb 0.30 in7.6 mm 0.00 in0.0 mm 1.83 in46.5 mm
09:35 PM 48.4°F9.1°C 46.7°F8.2°C 94% 2.2 mph W3.5 kmh W 3.6 mph5.8 kmh 29.59 in1002.0 mb 0.30 in7.6 mm 0.00 in0.0 mm 1.83 in46.5 mm
09:40 PM 48.4°F9.1°C 46.7°F8.2°C 94% 1.6 mph WNW2.6 kmh WNW 2.9 mph4.7 kmh 29.59 in1002.0 mb 0.34 in8.6 mm 0.48 in12.2 mm 1.87 in47.5 mm
09:45 PM 48.4°F9.1°C 46.7°F8.2°C 94% 0.9 mph N1.4 kmh N 2.9 mph4.7 kmh 29.59 in1002.0 mb 0.34 in8.6 mm 0.00 in0.0 mm 1.91 in48.5 mm
09:50 PM 48.6°F9.2°C 46.9°F8.3°C 94% 3.1 mph NE5.0 kmh NE 3.6 mph5.8 kmh 29.59 in1002.0 mb 0.29 in7.4 mm 0.00 in0.0 mm 1.91 in48.5 mm
09:55 PM 48.6°F9.2°C 47.2°F8.4°C 95% 2.0 mph ENE3.2 kmh ENE 3.6 mph5.8 kmh 29.56 in1001.0 mb 0.29 in7.4 mm 0.00 in0.0 mm 1.95 in49.5 mm
10:00 PM 48.6°F9.2°C 46.9°F8.3°C 94% Calm Calm 3.6 mph5.8 kmh 29.56 in1001.0 mb 0.25 in6.4 mm 0.00 in0.0 mm 1.95 in49.5 mm
10:05 PM 48.6°F9.2°C 46.9°F8.3°C 94% 1.6 mph SSE2.6 kmh SSE 3.6 mph5.8 kmh 29.56 in1001.0 mb 0.25 in6.4 mm 0.00 in0.0 mm 1.95 in49.5 mm
10:10 PM 48.6°F9.2°C 46.9°F8.3°C 94% 2.9 mph SSE4.7 kmh SSE 6.5 mph10.5 kmh 29.56 in1001.0 mb 0.21 in5.3 mm 0.00 in0.0 mm 1.95 in49.5 mm
10:15 PM 48.6°F9.2°C 46.9°F8.3°C 94% Calm Calm 6.5 mph10.5 kmh 29.56 in1001.0 mb 0.21 in5.3 mm 0.00 in0.0 mm 1.99 in50.5 mm
10:20 PM 48.6°F9.2°C 46.9°F8.3°C 94% 1.3 mph NE2.1 kmh NE 2.9 mph4.7 kmh 29.56 in1001.0 mb 0.21 in5.3 mm 0.00 in0.0 mm 1.99 in50.5 mm
10:25 PM 48.6°F9.2°C 46.9°F8.3°C 94% 2.0 mph NNW3.2 kmh NNW 3.6 mph5.8 kmh 29.53 in1000.0 mb 0.16 in4.1 mm 0.00 in0.0 mm 1.99 in50.5 mm
10:30 PM 48.6°F9.2°C 46.9°F8.3°C 94% 1.1 mph SW1.8 kmh SW 3.6 mph5.8 kmh 29.53 in1000.0 mb 0.16 in4.1 mm 0.00 in0.0 mm 1.99 in50.5 mm
10:35 PM 48.6°F9.2°C 46.9°F8.3°C 94% Calm Calm 3.6 mph5.8 kmh 29.53 in1000.0 mb 0.12 in3.0 mm 0.00 in0.0 mm 1.99 in50.5 mm
10:40 PM 48.6°F9.2°C 46.9°F8.3°C 94% 1.6 mph WSW2.6 kmh WSW 2.9 mph4.7 kmh 29.53 in1000.0 mb 0.12 in3.0 mm 0.00 in0.0 mm 1.99 in50.5 mm
10:45 PM 48.7°F9.3°C 47.1°F8.4°C 94% Calm Calm 4.0 mph6.4 kmh 29.53 in1000.0 mb 0.12 in3.0 mm 0.00 in0.0 mm 2.03 in51.6 mm
10:50 PM 48.7°F9.3°C 47.1°F8.4°C 94% 0.9 mph WNW1.4 kmh WNW 4.0 mph6.4 kmh 29.53 in1000.0 mb 0.12 in3.0 mm 0.00 in0.0 mm 2.03 in51.6 mm
10:55 PM 50.2°F10.1°C 48.5°F9.2°C 94% 10.7 mph NW17.2 kmh NW 12.5 mph20.1 kmh 29.53 in1000.0 mb 0.12 in3.0 mm 0.00 in0.0 mm 2.07 in52.6 mm
11:00 PM 51.8°F11.0°C 50.4°F10.2°C 95% 7.6 mph NW12.2 kmh NW 12.5 mph20.1 kmh 29.53 in1000.0 mb 0.12 in3.0 mm 0.00 in0.0 mm 2.07 in52.6 mm
11:05 PM 52.3°F11.3°C 50.7°F10.4°C 94% 9.8 mph WNW15.8 kmh WNW 19.7 mph31.7 kmh 29.53 in1000.0 mb 0.16 in4.1 mm 0.48 in12.2 mm 2.11 in53.6 mm
11:10 PM 53.8°F12.1°C 52.1°F11.2°C 94% 7.2 mph W11.6 kmh W 19.7 mph31.7 kmh 29.53 in1000.0 mb 0.16 in4.1 mm 0.00 in0.0 mm 2.11 in53.6 mm
11:15 PM 54.0°F12.2°C 52.3°F11.3°C 94% 3.4 mph SW5.5 kmh SW 19.0 mph30.6 kmh 29.53 in1000.0 mb 0.12 in3.0 mm 0.00 in0.0 mm 2.11 in53.6 mm
11:20 PM 54.3°F12.4°C 52.3°F11.3°C 93% 10.7 mph SW17.2 kmh SW 17.2 mph27.7 kmh 29.53 in1000.0 mb 0.12 in3.0 mm 0.00 in0.0 mm 2.11 in53.6 mm
11:25 PM 54.3°F12.4°C 52.0°F11.1°C 92% 8.1 mph SW13.0 kmh SW 17.2 mph27.7 kmh 29.53 in1000.0 mb 0.12 in3.0 mm 0.00 in0.0 mm 2.11 in53.6 mm
11:30 PM 54.5°F12.5°C 51.6°F10.9°C 90% 2.9 mph SE4.7 kmh SE 19.7 mph31.7 kmh 29.53 in1000.0 mb 0.12 in3.0 mm 0.00 in0.0 mm 2.11 in53.6 mm
11:35 PM 54.7°F12.6°C 51.5°F10.8°C 89% 4.5 mph SE7.2 kmh SE 19.7 mph31.7 kmh 29.53 in1000.0 mb 0.12 in3.0 mm 0.00 in0.0 mm 2.11 in53.6 mm
11:40 PM 54.7°F12.6°C 51.2°F10.7°C 88% 4.7 mph SW7.6 kmh SW 14.8 mph23.8 kmh 29.53 in1000.0 mb 0.12 in3.0 mm 0.00 in0.0 mm 2.11 in53.6 mm
11:45 PM 54.9°F12.7°C 51.4°F10.8°C 88% 3.8 mph SW6.1 kmh SW 12.3 mph19.8 kmh 29.53 in1000.0 mb 0.08 in2.0 mm 0.00 in0.0 mm 2.11 in53.6 mm
11:50 PM 54.7°F12.6°C 51.5°F10.8°C 89% 8.7 mph SW14.0 kmh SW 12.3 mph19.8 kmh 29.53 in1000.0 mb 0.08 in2.0 mm 0.00 in0.0 mm 2.11 in53.6 mm
11:55 PM 54.9°F12.7°C 51.4°F10.8°C 88% 5.8 mph WSW9.3 kmh WSW 17.4 mph28.0 kmh 29.53 in1000.0 mb 0.04 in1.0 mm 0.00 in0.0 mm 2.11 in53.6 mm